Time;durP1;ratioP1;P1;durP2;ratioP2;P2;SDS_P1;SDS_P2;PMS_P1;PMS_P2;Temp;Humidity;BMP_temperature;BMP_pressure;BME280_temperature;BME280_humidity;BME280_pressure;Samples;Min_cycle;Max_cycle;Signal;HPM_P1;HPM_P2
2023/05/27 00:00:32;;;;;;;6.65;0.95;;;;;;;;;;1030787;28;20034;-75
2023/05/27 00:01:02;;;;;;;0.30;0.30;;;;;;;;;;1031416;28;20022;-75
2023/05/27 00:01:33;;;;;;;16.90;1.95;;;;;;;;;;1031046;28;20117;-76
2023/05/27 00:02:03;;;;;;;1.38;1.27;;;;;;;;;;1029056;28;20018;-76
2023/05/27 00:02:34;;;;;;;3.08;1.63;;;;;;;;;;1031067;28;20416;-75
2023/05/27 00:03:04;;;;;;;1.40;1.30;;;;;;;;;;1031320;28;20109;-75
2023/05/27 00:03:35;;;;;;;1.48;1.38;;;;;;;;;;1027468;28;20059;-76
2023/05/27 00:04:05;;;;;;;0.63;0.63;;;;;;;;;;1027579;28;20022;-75
2023/05/27 00:04:36;;;;;;;0.52;0.38;;;;;;;;;;1027364;28;20027;-75
2023/05/27 00:05:06;;;;;;;1.13;0.70;;;;;;;;;;1027717;28;20118;-75
2023/05/27 00:05:37;;;;;;;1.65;1.48;;;;;;;;;;1027013;28;20050;-76
2023/05/27 00:06:07;;;;;;;0.70;0.70;;;;;;;;;;1027491;28;20030;-75
2023/05/27 00:06:38;;;;;;;0.68;0.68;;;;;;;;;;1027088;28;20025;-75
2023/05/27 00:07:09;;;;;;;0.82;0.70;;;;;;;;;;1023425;28;20026;-75
2023/05/27 00:07:41;;;;;;;0.90;0.57;;;;;;;;;;1026926;28;20023;-75
2023/05/27 00:08:12;;;;;;;2.20;1.40;;;;;;;;;;1026171;28;20019;-76
2023/05/27 00:08:42;;;;;;;0.28;0.28;;;;;;;;;;1027110;28;20031;-75
2023/05/27 00:09:13;;;;;;;1.52;0.90;;;;;;;;;;1027175;28;20027;-75
2023/05/27 00:09:44;;;;;;;2.55;2.35;;;;;;;;;;1027266;28;20089;-76
2023/05/27 00:10:14;;;;;;;2.35;2.03;;;;;;;;;;1027163;28;20097;-75
2023/05/27 00:10:45;;;;;;;5.85;2.22;;;;;;;;;;1026883;28;20030;-75
2023/05/27 00:11:15;;;;;;;5.20;2.55;;;;;;;;;;1027341;28;20023;-75
2023/05/27 00:11:46;;;;;;;0.52;0.52;;;;;;;;;;1027193;28;20564;-75
2023/05/27 00:12:17;;;;;;;0.98;0.98;;;;;;;;;;1027523;28;20018;-75
2023/05/27 00:12:47;;;;;;;0.90;0.80;;;;;;;;;;1027556;28;20078;-75
2023/05/27 00:13:18;;;;;;;1.85;0.70;;;;;;;;;;1026683;28;20101;-75
2023/05/27 00:13:48;;;;;;;1.27;1.17;;;;;;;;;;1030815;28;20026;-76
2023/05/27 00:14:20;;;;;;;1.55;0.70;;;;;;;;;;1031416;28;20685;-76
2023/05/27 00:14:50;;;;;;;0.63;0.57;;;;;;;;;;1030262;28;20572;-76
2023/05/27 00:15:21;;;;;;;0.38;0.38;;;;;;;;;;1029444;28;20023;-75
2023/05/27 00:15:52;;;;;;;1.83;1.42;;;;;;;;;;1029535;28;20464;-75
2023/05/27 00:16:23;;;;;;;1.45;1.35;;;;;;;;;;1024563;28;20066;-76
2023/05/27 00:16:54;;;;;;;1.35;1.02;;;;;;;;;;1024874;28;20077;-76
2023/05/27 00:17:25;;;;;;;0.85;0.85;;;;;;;;;;1027069;28;20023;-76
2023/05/27 00:17:57;;;;;;;3.67;1.13;;;;;;;;;;1027430;28;20030;-75
2023/05/27 00:18:28;;;;;;;0.95;0.95;;;;;;;;;;1026508;28;20015;-75
2023/05/27 00:18:59;;;;;;;2.03;1.83;;;;;;;;;;1027712;28;20023;-75
2023/05/27 00:19:32;;;;;;;3.70;0.93;;;;;;;;;;1027027;28;20041;-75
2023/05/27 00:20:07;;;;;;;3.50;1.95;;;;;;;;;;1027497;28;20019;-76
2023/05/27 00:20:38;;;;;;;0.40;0.40;;;;;;;;;;1027515;28;20030;-76
2023/05/27 00:21:08;;;;;;;1.02;0.65;;;;;;;;;;1027807;28;20069;-76
2023/05/27 00:21:38;;;;;;;3.15;1.33;;;;;;;;;;1027330;28;20053;-76
2023/05/27 00:22:09;;;;;;;0.88;0.88;;;;;;;;;;1030952;28;20034;-75
2023/05/27 00:22:40;;;;;;;3.42;1.95;;;;;;;;;;1031157;28;20022;-76
2023/05/27 00:23:10;;;;;;;0.30;0.30;;;;;;;;;;1031279;28;20398;-75
2023/05/27 00:23:45;;;;;;;1.13;1.05;;;;;;;;;;1030965;28;20018;-73
2023/05/27 00:24:15;;;;;;;0.82;0.82;;;;;;;;;;1027487;28;20038;-73
2023/05/27 00:24:46;;;;;;;1.65;1.10;;;;;;;;;;1031167;28;20565;-73
2023/05/27 00:25:20;;;;;;;0.60;0.52;;;;;;;;;;1030157;28;20030;-75
2023/05/27 00:25:51;;;;;;;0.40;0.20;;;;;;;;;;1030504;28;20490;-75
2023/05/27 00:26:21;;;;;;;0.40;0.40;;;;;;;;;;1030806;28;20026;-76
2023/05/27 00:26:52;;;;;;;0.30;0.30;;;;;;;;;;1027484;28;20027;-75
2023/05/27 00:27:22;;;;;;;9.85;2.53;;;;;;;;;;1031141;28;20026;-76
2023/05/27 00:27:54;;;;;;;0.68;0.68;;;;;;;;;;1031070;28;20477;-75
2023/05/27 00:28:28;;;;;;;1.58;1.48;;;;;;;;;;1031155;28;20117;-75
2023/05/27 00:28:59;;;;;;;0.63;0.57;;;;;;;;;;1030423;28;20026;-76
2023/05/27 00:29:30;;;;;;;6.63;1.25;;;;;;;;;;1029961;28;20034;-75
2023/05/27 00:30:02;;;;;;;0.43;0.43;;;;;;;;;;1027646;28;20077;-76
2023/05/27 00:30:33;;;;;;;1.45;0.95;;;;;;;;;;1027578;28;20037;-75
2023/05/27 00:31:03;;;;;;;1.33;1.23;;;;;;;;;;1031199;28;20065;-76
2023/05/27 00:31:34;;;;;;;1.55;0.77;;;;;;;;;;1030918;28;20019;-74
2023/05/27 00:32:04;;;;;;;2.33;1.25;;;;;;;;;;1031385;28;20540;-76
2023/05/27 00:32:35;;;;;;;2.38;1.08;;;;;;;;;;1031244;28;20580;-75
2023/05/27 00:33:05;;;;;;;0.63;0.63;;;;;;;;;;1028428;28;20026;-76
2023/05/27 00:33:36;;;;;;;0.10;0.10;;;;;;;;;;1028156;28;20086;-76
2023/05/27 00:34:06;;;;;;;1.65;0.75;;;;;;;;;;1027950;28;20493;-76
2023/05/27 00:34:38;;;;;;;0.40;0.40;;;;;;;;;;1027973;28;20395;-76
2023/05/27 00:35:09;;;;;;;0.68;0.68;;;;;;;;;;1028398;28;20038;-76
2023/05/27 00:35:40;;;;;;;4.13;0.95;;;;;;;;;;1027125;28;20034;-75
2023/05/27 00:36:10;;;;;;;3.63;2.97;;;;;;;;;;1028380;28;20113;-75
2023/05/27 00:36:41;;;;;;;0.85;0.43;;;;;;;;;;1028139;28;20045;-75
2023/05/27 00:37:11;;;;;;;0.30;0.30;;;;;;;;;;1027343;28;20019;-75
2023/05/27 00:37:42;;;;;;;2.05;0.73;;;;;;;;;;1031707;28;20455;-76
2023/05/27 00:38:12;;;;;;;0.93;0.93;;;;;;;;;;1030061;28;20045;-75
2023/05/27 00:38:43;;;;;;;0.30;0.30;;;;;;;;;;1030103;28;20035;-75
2023/05/27 00:39:13;;;;;;;0.55;0.55;;;;;;;;;;1026055;28;20062;-73
2023/05/27 00:39:44;;;;;;;1.70;1.52;;;;;;;;;;1025903;28;20113;-73
2023/05/27 00:40:14;;;;;;;0.32;0.32;;;;;;;;;;1027645;28;20015;-73
2023/05/27 00:40:45;;;;;;;1.20;1.13;;;;;;;;;;1027052;28;20031;-75
2023/05/27 00:41:16;;;;;;;1.60;1.08;;;;;;;;;;1028201;28;20027;-76
2023/05/27 00:41:50;;;;;;;1.05;1.00;;;;;;;;;;1028032;28;20030;-75
2023/05/27 00:42:21;;;;;;;0.40;0.40;;;;;;;;;;1028453;28;20394;-75
2023/05/27 00:42:51;;;;;;;0.80;0.35;;;;;;;;;;1031766;28;20037;-76
2023/05/27 00:43:22;;;;;;;0.20;0.20;;;;;;;;;;1032001;28;20106;-76
2023/05/27 00:43:52;;;;;;;0.25;0.25;;;;;;;;;;1032035;28;20126;-76
2023/05/27 00:44:23;;;;;;;1.88;1.55;;;;;;;;;;1031730;28;20022;-75
2023/05/27 00:44:53;;;;;;;0.40;0.40;;;;;;;;;;1028270;28;20022;-75
2023/05/27 00:45:24;;;;;;;2.08;1.20;;;;;;;;;;1028299;28;20038;-76
2023/05/27 00:45:54;;;;;;;0.20;0.17;;;;;;;;;;1031704;28;20026;-75
2023/05/27 00:46:25;;;;;;;2.42;1.05;;;;;;;;;;1031606;28;20072;-76
2023/05/27 00:46:55;;;;;;;2.00;1.00;;;;;;;;;;1032011;28;20025;-76
2023/05/27 00:47:29;;;;;;;2.28;1.55;;;;;;;;;;1029884;28;20034;-76
2023/05/27 00:48:01;;;;;;;1.38;1.27;;;;;;;;;;1030219;28;20105;-76
2023/05/27 00:48:31;;;;;;;0.88;0.88;;;;;;;;;;1030103;28;20026;-76
2023/05/27 00:49:02;;;;;;;0.38;0.38;;;;;;;;;;1029427;28;20026;-76
2023/05/27 00:49:33;;;;;;;0.80;0.80;;;;;;;;;;1027852;28;20031;-76
2023/05/27 00:50:04;;;;;;;0.77;0.20;;;;;;;;;;1028233;28;20026;-76
2023/05/27 00:50:34;;;;;;;0.57;0.57;;;;;;;;;;1028215;28;20545;-75
2023/05/27 00:51:05;;;;;;;0.55;0.38;;;;;;;;;;1028364;28;20497;-76
2023/05/27 00:51:36;;;;;;;1.23;1.00;;;;;;;;;;1031673;28;20461;-76
2023/05/27 00:52:06;;;;;;;12.15;0.88;;;;;;;;;;1031791;28;20551;-76
2023/05/27 00:52:37;;;;;;;3.60;1.88;;;;;;;;;;1029918;28;20029;-76
2023/05/27 00:53:07;;;;;;;0.20;0.20;;;;;;;;;;1030248;28;20053;-76
2023/05/27 00:53:41;;;;;;;0.43;0.43;;;;;;;;;;1025724;28;20044;-76
2023/05/27 00:54:12;;;;;;;0.25;0.25;;;;;;;;;;1026064;28;20027;-75
2023/05/27 00:54:43;;;;;;;1.60;1.08;;;;;;;;;;1027829;28;20118;-76
2023/05/27 00:55:13;;;;;;;1.45;0.80;;;;;;;;;;1024457;28;20061;-76
2023/05/27 00:55:44;;;;;;;0.17;0.17;;;;;;;;;;1027648;28;20026;-75
2023/05/27 00:56:15;;;;;;;1.27;1.08;;;;;;;;;;1028117;28;20030;-75
2023/05/27 00:56:46;;;;;;;1.55;0.82;;;;;;;;;;1027697;28;20371;-75
2023/05/27 00:57:16;;;;;;;1.92;0.45;;;;;;;;;;1028289;28;20015;-75
2023/05/27 00:57:47;;;;;;;0.40;0.32;;;;;;;;;;1028229;28;20085;-75
2023/05/27 00:58:21;;;;;;;1.58;0.93;;;;;;;;;;1027274;28;20089;-75
2023/05/27 00:58:51;;;;;;;1.20;1.10;;;;;;;;;;1031827;28;20026;-75
2023/05/27 00:59:22;;;;;;;0.50;0.50;;;;;;;;;;1031439;28;20054;-75
2023/05/27 00:59:53;;;;;;;0.63;0.63;;;;;;;;;;1031748;28;20026;-75
2023/05/27 01:00:23;;;;;;;0.43;0.43;;;;;;;;;;1031444;28;20117;-75
2023/05/27 01:00:54;;;;;;;1.50;1.10;;;;;;;;;;1031854;28;20065;-75
2023/05/27 01:01:28;;;;;;;0.32;0.22;;;;;;;;;;1031805;28;20506;-75
2023/05/27 01:01:58;;;;;;;0.20;0.20;;;;;;;;;;1031892;28;20030;-75
2023/05/27 01:02:29;;;;;;;6.03;1.58;;;;;;;;;;1031718;28;20077;-75
2023/05/27 01:02:59;;;;;;;0.10;0.10;;;;;;;;;;1031973;28;20566;-75
2023/05/27 01:03:32;;;;;;;0.82;0.65;;;;;;;;;;1031676;28;20053;-75
2023/05/27 01:04:03;;;;;;;9.73;2.67;;;;;;;;;;1027921;28;20026;-75
2023/05/27 01:04:33;;;;;;;0.45;0.38;;;;;;;;;;1027569;28;20117;-75
2023/05/27 01:05:04;;;;;;;0.90;0.90;;;;;;;;;;1027996;28;20121;-75
2023/05/27 01:05:34;;;;;;;0.10;0.10;;;;;;;;;;1027736;28;20030;-75
2023/05/27 01:06:14;;;;;;;0.35;0.35;;;;;;;;;;1032027;28;20022;-75
2023/05/27 01:07:03;;;;;;;2.42;0.50;;;;;;;;;;1031286;28;20100;-75
2023/05/27 01:07:36;;;;;;;0.15;0.15;;;;;;;;;;1029794;28;20026;-75
2023/05/27 01:08:29;;;;;;;0.45;0.20;;;;;;;;;;1030058;28;20129;-75
2023/05/27 01:09:04;;;;;;;0.00;0.00;;;;;;;;;;1025665;28;20042;-75
2023/05/27 01:09:37;;;;;;;1.17;0.73;;;;;;;;;;1023251;29;20019;-75
2023/05/27 01:10:14;;;;;;;1.95;0.90;;;;;;;;;;1024015;29;20419;-75
2023/05/27 01:10:52;;;;;;;1.52;1.42;;;;;;;;;;1024606;28;20019;-75
2023/05/27 01:11:26;;;;;;;0.55;0.55;;;;;;;;;;1027287;28;20459;-75
2023/05/27 01:12:07;;;;;;;1.58;1.48;;;;;;;;;;1026900;28;20050;-75
2023/05/27 01:12:44;;;;;;;6.10;1.60;;;;;;;;;;1026290;28;20031;-75
2023/05/27 01:13:18;;;;;;;0.43;0.43;;;;;;;;;;1027227;28;20030;-75
2023/05/27 01:13:55;;;;;;;1.10;0.70;;;;;;;;;;1028084;28;20027;-75
2023/05/27 01:14:26;;;;;;;5.22;1.50;;;;;;;;;;1030618;28;20018;-75
2023/05/27 01:14:57;;;;;;;1.95;1.75;;;;;;;;;;1031994;28;20031;-75
2023/05/27 01:15:30;;;;;;;0.90;0.88;;;;;;;;;;1031468;28;20026;-76
2023/05/27 01:16:02;;;;;;;0.70;0.68;;;;;;;;;;1028512;28;20513;-76
2023/05/27 01:16:34;;;;;;;6.30;0.40;;;;;;;;;;1027877;28;20034;-76
2023/05/27 01:17:06;;;;;;;2.50;0.88;;;;;;;;;;1025694;28;20031;-75
2023/05/27 01:17:42;;;;;;;5.47;1.55;;;;;;;;;;1024787;28;20109;-75
2023/05/27 01:18:16;;;;;;;0.73;0.47;;;;;;;;;;1023045;29;20061;-75
2023/05/27 01:18:48;;;;;;;0.93;0.47;;;;;;;;;;1023457;28;20463;-77
2023/05/27 01:19:27;;;;;;;1.30;0.77;;;;;;;;;;1027240;28;20085;-76
2023/05/27 01:19:59;;;;;;;2.47;1.27;;;;;;;;;;1028751;28;20452;-76
2023/05/27 01:20:30;;;;;;;1.08;0.98;;;;;;;;;;1030723;28;20524;-76
2023/05/27 01:21:02;;;;;;;1.58;0.77;;;;;;;;;;1030408;28;20029;-73
2023/05/27 01:21:36;;;;;;;1.10;0.95;;;;;;;;;;1027098;28;20033;-74
2023/05/27 01:22:07;;;;;;;0.28;0.28;;;;;;;;;;1026285;28;20027;-73
2023/05/27 01:22:41;;;;;;;0.80;0.70;;;;;;;;;;1027642;28;20027;-73
2023/05/27 01:23:11;;;;;;;0.75;0.40;;;;;;;;;;1023927;28;20034;-73
2023/05/27 01:23:42;;;;;;;0.17;0.17;;;;;;;;;;1025902;28;20331;-73
2023/05/27 01:24:13;;;;;;;0.45;0.40;;;;;;;;;;1025978;28;20182;-74
2023/05/27 01:24:43;;;;;;;1.35;1.15;;;;;;;;;;1025903;28;20574;-74
2023/05/27 01:25:14;;;;;;;0.80;0.80;;;;;;;;;;1026162;28;20427;-73
2023/05/27 01:25:44;;;;;;;6.20;0.75;;;;;;;;;;1026521;28;20034;-76
2023/05/27 01:26:15;;;;;;;0.50;0.35;;;;;;;;;;1026737;28;20027;-74
2023/05/27 01:26:45;;;;;;;0.55;0.52;;;;;;;;;;1027921;28;20023;-74
2023/05/27 01:27:16;;;;;;;0.55;0.55;;;;;;;;;;1025168;28;20339;-74
2023/05/27 01:27:46;;;;;;;1.52;1.35;;;;;;;;;;1026998;28;20035;-74
2023/05/27 01:28:17;;;;;;;0.55;0.55;;;;;;;;;;1028053;28;20029;-76
2023/05/27 01:28:47;;;;;;;0.40;0.40;;;;;;;;;;1026287;28;20035;-74
2023/05/27 01:29:18;;;;;;;1.52;1.42;;;;;;;;;;1026664;28;20360;-74
2023/05/27 01:29:48;;;;;;;1.08;1.08;;;;;;;;;;1026335;28;20035;-74
2023/05/27 01:30:20;;;;;;;2.17;0.85;;;;;;;;;;1027721;28;20027;-75
2023/05/27 01:30:52;;;;;;;0.95;0.90;;;;;;;;;;1027888;28;20435;-75
2023/05/27 01:31:27;;;;;;;0.70;0.55;;;;;;;;;;1027443;28;20176;-75
2023/05/27 01:32:01;;;;;;;6.28;1.15;;;;;;;;;;1027650;28;20478;-75
2023/05/27 01:32:40;;;;;;;1.17;1.08;;;;;;;;;;1027776;28;20023;-75
2023/05/27 01:33:17;;;;;;;1.90;1.73;;;;;;;;;;1026470;28;20046;-74
2023/05/27 01:33:57;;;;;;;0.35;0.35;;;;;;;;;;1027665;28;20031;-74
2023/05/27 01:34:36;;;;;;;1.17;0.85;;;;;;;;;;1026695;28;20065;-74
2023/05/27 01:35:14;;;;;;;0.00;0.00;;;;;;;;;;1025456;28;20023;-75
2023/05/27 01:35:52;;;;;;;0.85;0.45;;;;;;;;;;1026779;28;20494;-75
2023/05/27 01:36:24;;;;;;;1.40;1.30;;;;;;;;;;1026809;28;20022;-75
2023/05/27 01:36:58;;;;;;;5.00;0.90;;;;;;;;;;1026844;28;20027;-74
2023/05/27 01:37:31;;;;;;;0.68;0.40;;;;;;;;;;1027675;28;20082;-75
2023/05/27 01:38:05;;;;;;;0.75;0.65;;;;;;;;;;1026287;28;20019;-75
2023/05/27 01:38:36;;;;;;;0.47;0.45;;;;;;;;;;1028025;28;20022;-75
2023/05/27 01:39:10;;;;;;;0.32;0.32;;;;;;;;;;1026933;28;20034;-74
2023/05/27 01:39:41;;;;;;;0.30;0.30;;;;;;;;;;1027825;28;20113;-74
2023/05/27 01:40:13;;;;;;;1.13;0.63;;;;;;;;;;1025818;28;20510;-74
2023/05/27 01:40:44;;;;;;;1.40;1.30;;;;;;;;;;1023331;28;20427;-74
2023/05/27 01:41:15;;;;;;;3.65;1.85;;;;;;;;;;1018562;29;20086;-74
2023/05/27 01:41:46;;;;;;;1.52;1.42;;;;;;;;;;1019552;29;20040;-74
2023/05/27 01:42:17;;;;;;;0.55;0.55;;;;;;;;;;1023302;28;20610;-74
2023/05/27 01:42:48;;;;;;;1.50;0.77;;;;;;;;;;1026081;28;20031;-74
2023/05/27 01:43:19;;;;;;;1.08;0.98;;;;;;;;;;1029987;28;20038;-74
2023/05/27 01:43:50;;;;;;;0.65;0.57;;;;;;;;;;1026794;28;20030;-74
2023/05/27 01:44:21;;;;;;;4.40;2.17;;;;;;;;;;1026932;28;20066;-74
2023/05/27 01:44:53;;;;;;;0.22;0.22;;;;;;;;;;1026776;28;20027;-75
2023/05/27 01:45:23;;;;;;;1.55;1.25;;;;;;;;;;1025895;28;20129;-75
2023/05/27 01:45:54;;;;;;;3.20;2.90;;;;;;;;;;1030419;28;20037;-77
2023/05/27 01:46:24;;;;;;;1.10;1.00;;;;;;;;;;1028692;28;20030;-75
2023/05/27 01:47:01;;;;;;;1.10;0.63;;;;;;;;;;1030034;28;20033;-75
2023/05/27 01:47:31;;;;;;;4.47;2.60;;;;;;;;;;1027678;28;20035;-75
2023/05/27 01:48:02;;;;;;;0.50;0.50;;;;;;;;;;1027211;28;20378;-75
2023/05/27 01:48:32;;;;;;;0.20;0.20;;;;;;;;;;1027854;28;20086;-75
2023/05/27 01:49:03;;;;;;;0.80;0.60;;;;;;;;;;1028059;28;20030;-75
2023/05/27 01:49:35;;;;;;;0.80;0.70;;;;;;;;;;1030255;28;20046;-76
2023/05/27 01:50:06;;;;;;;7.70;1.42;;;;;;;;;;1031407;28;20065;-76
2023/05/27 01:50:37;;;;;;;3.80;0.95;;;;;;;;;;1027405;28;20022;-75
2023/05/27 01:51:07;;;;;;;0.28;0.28;;;;;;;;;;1027436;28;20027;-75
2023/05/27 01:51:38;;;;;;;0.38;0.38;;;;;;;;;;1027015;28;20136;-76
2023/05/27 01:52:08;;;;;;;1.58;0.90;;;;;;;;;;1027679;28;20035;-76
2023/05/27 01:52:39;;;;;;;1.20;1.10;;;;;;;;;;1031550;28;20033;-75
2023/05/27 01:53:11;;;;;;;4.80;2.75;;;;;;;;;;1027869;28;20034;-76
2023/05/27 01:53:42;;;;;;;0.93;0.90;;;;;;;;;;1031159;28;20486;-76
2023/05/27 01:54:12;;;;;;;0.68;0.68;;;;;;;;;;1031703;28;20030;-76
2023/05/27 01:54:43;;;;;;;1.45;1.33;;;;;;;;;;1027501;28;20027;-75
2023/05/27 01:55:13;;;;;;;1.70;1.58;;;;;;;;;;1027254;28;20023;-75
2023/05/27 01:55:44;;;;;;;15.80;1.50;;;;;;;;;;1027103;28;20018;-74
2023/05/27 01:56:14;;;;;;;1.17;0.85;;;;;;;;;;1027811;28;20029;-75
2023/05/27 01:56:45;;;;;;;2.13;1.20;;;;;;;;;;1027336;28;20054;-75
2023/05/27 01:57:16;;;;;;;2.97;1.15;;;;;;;;;;1026747;28;20019;-75
2023/05/27 01:57:46;;;;;;;0.30;0.30;;;;;;;;;;1022926;29;20110;-75
2023/05/27 01:58:17;;;;;;;0.43;0.20;;;;;;;;;;1023460;29;20024;-75
2023/05/27 01:58:47;;;;;;;2.95;1.70;;;;;;;;;;1023544;29;20038;-75
2023/05/27 01:59:17;;;;;;;0.52;0.52;;;;;;;;;;1022911;28;20027;-75
2023/05/27 01:59:48;;;;;;;0.85;0.80;;;;;;;;;;1022468;28;20097;-75
2023/05/27 02:00:18;;;;;;;0.10;0.10;;;;;;;;;;1027401;28;20117;-75
2023/05/27 02:00:49;;;;;;;4.68;0.75;;;;;;;;;;1027948;28;20547;-75
2023/05/27 02:01:21;;;;;;;1.75;0.85;;;;;;;;;;1027080;28;20030;-75
2023/05/27 02:01:52;;;;;;;1.75;1.35;;;;;;;;;;1026485;28;20026;-75
2023/05/27 02:02:22;;;;;;;0.47;0.47;;;;;;;;;;1026455;28;20145;-74
2023/05/27 02:02:53;;;;;;;0.63;0.52;;;;;;;;;;1026435;28;20506;-75
2023/05/27 02:03:23;;;;;;;1.55;1.30;;;;;;;;;;1027455;28;20069;-75
2023/05/27 02:03:54;;;;;;;0.38;0.38;;;;;;;;;;1026458;28;20023;-74
2023/05/27 02:04:25;;;;;;;0.52;0.52;;;;;;;;;;1026853;28;20046;-76
2023/05/27 02:04:55;;;;;;;1.45;1.35;;;;;;;;;;1027416;28;20030;-76
2023/05/27 02:05:26;;;;;;;0.38;0.38;;;;;;;;;;1025530;28;20033;-76
2023/05/27 02:05:56;;;;;;;1.02;0.98;;;;;;;;;;1023979;28;20022;-76
2023/05/27 02:06:27;;;;;;;3.40;0.75;;;;;;;;;;1024878;28;20071;-76
2023/05/27 02:06:57;;;;;;;2.33;1.70;;;;;;;;;;1029559;28;20060;-75
2023/05/27 02:07:28;;;;;;;1.35;0.73;;;;;;;;;;1027843;28;20046;-75
2023/05/27 02:07:58;;;;;;;1.02;0.95;;;;;;;;;;1027066;28;20692;-75
2023/05/27 02:08:28;;;;;;;3.08;1.88;;;;;;;;;;1027792;28;20031;-75
2023/05/27 02:08:59;;;;;;;4.60;1.35;;;;;;;;;;1027460;28;20132;-75
2023/05/27 02:09:29;;;;;;;0.60;0.60;;;;;;;;;;1027122;28;20019;-75
2023/05/27 02:10:00;;;;;;;2.88;1.30;;;;;;;;;;1026611;28;20062;-76
2023/05/27 02:10:30;;;;;;;0.00;0.00;;;;;;;;;;1027207;28;20074;-75
2023/05/27 02:11:01;;;;;;;1.50;1.38;;;;;;;;;;1027339;28;20058;-75
2023/05/27 02:11:31;;;;;;;0.35;0.28;;;;;;;;;;1027290;28;20530;-75
2023/05/27 02:12:02;;;;;;;3.75;1.85;;;;;;;;;;1026916;28;20038;-75
2023/05/27 02:12:32;;;;;;;0.85;0.55;;;;;;;;;;1027608;28;20034;-75
2023/05/27 02:13:03;;;;;;;1.55;0.43;;;;;;;;;;1026915;28;20118;-75
2023/05/27 02:13:33;;;;;;;0.85;0.30;;;;;;;;;;1027020;28;20379;-75
2023/05/27 02:14:05;;;;;;;0.45;0.30;;;;;;;;;;1025764;28;20037;-75
2023/05/27 02:14:38;;;;;;;1.95;0.63;;;;;;;;;;1025594;28;20160;-75
2023/05/27 02:15:09;;;;;;;0.75;0.73;;;;;;;;;;1026618;28;20035;-75
2023/05/27 02:15:40;;;;;;;1.15;1.13;;;;;;;;;;1025936;28;20027;-75
2023/05/27 02:16:12;;;;;;;0.90;0.55;;;;;;;;;;1026800;28;20027;-75
2023/05/27 02:16:43;;;;;;;2.63;1.55;;;;;;;;;;1031059;28;20026;-75
2023/05/27 02:17:14;;;;;;;11.65;1.40;;;;;;;;;;1027229;28;20034;-75
2023/05/27 02:17:46;;;;;;;0.90;0.90;;;;;;;;;;1027432;28;20049;-75
2023/05/27 02:18:17;;;;;;;1.58;1.35;;;;;;;;;;1027038;28;20023;-75
2023/05/27 02:18:51;;;;;;;1.65;1.17;;;;;;;;;;1023292;28;20126;-75
2023/05/27 02:19:22;;;;;;;2.47;1.20;;;;;;;;;;1029832;28;20037;-75
2023/05/27 02:19:52;;;;;;;0.57;0.57;;;;;;;;;;1030819;28;20026;-75
2023/05/27 02:20:23;;;;;;;0.80;0.80;;;;;;;;;;1030640;28;20104;-75
2023/05/27 02:20:53;;;;;;;2.20;0.77;;;;;;;;;;1029003;28;20080;-75
2023/05/27 02:21:24;;;;;;;1.30;0.98;;;;;;;;;;1029336;28;20028;-75
2023/05/27 02:21:54;;;;;;;1.17;1.08;;;;;;;;;;1028606;28;20096;-75
2023/05/27 02:22:25;;;;;;;0.50;0.50;;;;;;;;;;1028768;28;20466;-75
2023/05/27 02:22:55;;;;;;;2.20;1.15;;;;;;;;;;1027204;28;20035;-75
2023/05/27 02:23:26;;;;;;;1.77;1.63;;;;;;;;;;1027530;28;20553;-75
2023/05/27 02:23:56;;;;;;;1.65;1.30;;;;;;;;;;1027841;28;20023;-75
2023/05/27 02:24:26;;;;;;;13.27;2.13;;;;;;;;;;1027574;28;20027;-74
2023/05/27 02:24:57;;;;;;;0.55;0.55;;;;;;;;;;1027801;28;20048;-75
2023/05/27 02:25:27;;;;;;;0.50;0.50;;;;;;;;;;1030840;28;20017;-75
2023/05/27 02:25:58;;;;;;;0.98;0.82;;;;;;;;;;1030886;28;20033;-76
2023/05/27 02:26:28;;;;;;;1.13;0.98;;;;;;;;;;1027113;28;20581;-76
2023/05/27 02:26:59;;;;;;;0.47;0.47;;;;;;;;;;1026679;28;20065;-74
2023/05/27 02:27:30;;;;;;;0.55;0.47;;;;;;;;;;1026669;28;20434;-74
2023/05/27 02:28:02;;;;;;;0.82;0.82;;;;;;;;;;1027266;28;20049;-74
2023/05/27 02:28:32;;;;;;;1.77;0.98;;;;;;;;;;1025681;28;20333;-74
2023/05/27 02:29:03;;;;;;;19.48;1.75;;;;;;;;;;1026203;28;20027;-74
2023/05/27 02:29:34;;;;;;;1.10;0.90;;;;;;;;;;1026652;28;20074;-74
2023/05/27 02:30:04;;;;;;;1.55;1.45;;;;;;;;;;1026911;28;20113;-76
2023/05/27 02:30:35;;;;;;;0.15;0.15;;;;;;;;;;1029538;28;20103;-75
2023/05/27 02:31:06;;;;;;;0.63;0.63;;;;;;;;;;1025997;28;20046;-75
2023/05/27 02:31:36;;;;;;;0.85;0.85;;;;;;;;;;1026722;28;20034;-74
2023/05/27 02:32:07;;;;;;;0.40;0.40;;;;;;;;;;1026858;28;20029;-75
2023/05/27 02:32:37;;;;;;;0.77;0.65;;;;;;;;;;1027415;28;20121;-75
2023/05/27 02:33:08;;;;;;;3.92;1.60;;;;;;;;;;1026958;28;20050;-74
2023/05/27 02:33:39;;;;;;;1.70;0.95;;;;;;;;;;1022232;29;20523;-75
2023/05/27 02:34:09;;;;;;;0.45;0.45;;;;;;;;;;1022862;28;20069;-75
2023/05/27 02:34:40;;;;;;;3.47;3.15;;;;;;;;;;1026923;28;20081;-75
2023/05/27 02:35:13;;;;;;;0.85;0.85;;;;;;;;;;1031371;28;20018;-75
2023/05/27 02:35:44;;;;;;;11.90;0.90;;;;;;;;;;1031189;28;20085;-75
2023/05/27 02:36:15;;;;;;;0.75;0.63;;;;;;;;;;1029777;28;20121;-75
2023/05/27 02:36:46;;;;;;;0.80;0.80;;;;;;;;;;1025875;28;20455;-75
2023/05/27 02:37:16;;;;;;;4.57;1.02;;;;;;;;;;1026837;28;20026;-75
2023/05/27 02:37:47;;;;;;;0.20;0.20;;;;;;;;;;1027170;28;20109;-74
2023/05/27 02:38:17;;;;;;;1.75;1.00;;;;;;;;;;1027447;28;20048;-74
2023/05/27 02:38:48;;;;;;;5.45;0.88;;;;;;;;;;1029021;28;20576;-75
2023/05/27 02:39:18;;;;;;;3.83;1.08;;;;;;;;;;1025413;28;20113;-75
2023/05/27 02:39:49;;;;;;;30.83;1.90;;;;;;;;;;1025634;28;20367;-75
2023/05/27 02:40:26;;;;;;;1.42;0.30;;;;;;;;;;1026602;28;20034;-75
2023/05/27 02:40:57;;;;;;;0.93;0.85;;;;;;;;;;1026349;28;20037;-75
2023/05/27 02:41:29;;;;;;;28.25;2.83;;;;;;;;;;1025411;28;20077;-75
2023/05/27 02:41:59;;;;;;;0.68;0.60;;;;;;;;;;1027093;28;20073;-76
2023/05/27 02:42:30;;;;;;;0.55;0.55;;;;;;;;;;1024738;28;20566;-76
2023/05/27 02:43:01;;;;;;;1.90;1.38;;;;;;;;;;1026650;28;20037;-76
2023/05/27 02:43:31;;;;;;;1.05;0.65;;;;;;;;;;1027078;28;20081;-76
2023/05/27 02:44:02;;;;;;;0.65;0.60;;;;;;;;;;1025349;28;20714;-76
2023/05/27 02:44:33;;;;;;;0.82;0.68;;;;;;;;;;1026581;28;20050;-76
2023/05/27 02:45:03;;;;;;;1.10;0.63;;;;;;;;;;1026248;28;20031;-76
2023/05/27 02:45:34;;;;;;;0.15;0.15;;;;;;;;;;1027648;28;20569;-76
2023/05/27 02:46:05;;;;;;;0.47;0.38;;;;;;;;;;1026447;28;20157;-76
2023/05/27 02:46:36;;;;;;;0.93;0.73;;;;;;;;;;1027594;28;21003;-76
2023/05/27 02:47:06;;;;;;;1.75;1.65;;;;;;;;;;1023213;28;20027;-76
2023/05/27 02:47:37;;;;;;;2.38;1.15;;;;;;;;;;1023137;28;20030;-76
2023/05/27 02:48:08;;;;;;;1.30;0.88;;;;;;;;;;1019558;29;20038;-76
2023/05/27 02:48:39;;;;;;;0.75;0.47;;;;;;;;;;1016968;29;20028;-75
2023/05/27 02:49:10;;;;;;;0.22;0.22;;;;;;;;;;1015189;29;20123;-75
2023/05/27 02:49:41;;;;;;;0.38;0.30;;;;;;;;;;1018068;29;20024;-74
2023/05/27 02:50:12;;;;;;;1.13;0.88;;;;;;;;;;1019864;29;20036;-75
2023/05/27 02:50:43;;;;;;;3.10;2.42;;;;;;;;;;1021570;28;20035;-75
2023/05/27 02:51:14;;;;;;;0.20;0.20;;;;;;;;;;1024620;28;20030;-75
2023/05/27 02:51:45;;;;;;;0.20;0.20;;;;;;;;;;1028337;28;20176;-75
2023/05/27 02:52:16;;;;;;;1.20;0.70;;;;;;;;;;1031480;28;20022;-75
2023/05/27 02:52:47;;;;;;;2.80;1.55;;;;;;;;;;1031516;28;20022;-75
2023/05/27 02:53:19;;;;;;;0.57;0.57;;;;;;;;;;1028703;28;20488;-75
2023/05/27 02:53:50;;;;;;;0.98;0.43;;;;;;;;;;1026606;28;20035;-74
2023/05/27 02:54:21;;;;;;;1.98;1.55;;;;;;;;;;1022784;29;20015;-75
2023/05/27 02:54:52;;;;;;;3.03;0.80;;;;;;;;;;1022045;28;20027;-76
2023/05/27 02:55:23;;;;;;;2.20;1.33;;;;;;;;;;1026779;28;20082;-74
2023/05/27 02:55:53;;;;;;;3.22;2.03;;;;;;;;;;1025425;28;20037;-74
2023/05/27 02:56:25;;;;;;;1.25;0.85;;;;;;;;;;1027458;28;20143;-74
2023/05/27 02:56:56;;;;;;;0.57;0.57;;;;;;;;;;1030322;28;20121;-75
2023/05/27 02:57:26;;;;;;;0.10;0.10;;;;;;;;;;1029055;28;20030;-74
2023/05/27 02:57:57;;;;;;;2.90;1.65;;;;;;;;;;1029523;28;21340;-74
2023/05/27 02:58:27;;;;;;;0.20;0.20;;;;;;;;;;1031166;28;20028;-75
2023/05/27 02:58:58;;;;;;;11.27;2.15;;;;;;;;;;1025697;28;20022;-75
2023/05/27 02:59:28;;;;;;;1.00;0.80;;;;;;;;;;1025346;28;20057;-74
2023/05/27 02:59:59;;;;;;;7.03;1.27;;;;;;;;;;1025377;28;20525;-74
2023/05/27 03:00:30;;;;;;;18.92;2.40;;;;;;;;;;1026524;28;20029;-74
2023/05/27 03:01:00;;;;;;;6.60;3.72;;;;;;;;;;1026824;28;20042;-74
2023/05/27 03:01:33;;;;;;;1.13;0.70;;;;;;;;;;1027186;28;20022;-74
2023/05/27 03:02:04;;;;;;;4.85;2.33;;;;;;;;;;1027212;28;20030;-74
2023/05/27 03:02:34;;;;;;;0.55;0.55;;;;;;;;;;1026636;28;20042;-74
2023/05/27 03:03:06;;;;;;;0.90;0.52;;;;;;;;;;1026933;28;20030;-74
2023/05/27 03:03:40;;;;;;;1.55;1.45;;;;;;;;;;1027763;28;20050;-74
2023/05/27 03:04:11;;;;;;;1.55;1.08;;;;;;;;;;1026339;28;20478;-74
2023/05/27 03:04:41;;;;;;;3.90;0.95;;;;;;;;;;1026675;28;20041;-74
2023/05/27 03:05:12;;;;;;;1.33;1.00;;;;;;;;;;1023166;28;20089;-75
2023/05/27 03:05:42;;;;;;;0.10;0.10;;;;;;;;;;1026954;28;20023;-74
2023/05/27 03:06:13;;;;;;;0.00;0.00;;;;;;;;;;1021720;28;20032;-74
2023/05/27 03:06:43;;;;;;;0.47;0.40;;;;;;;;;;1023489;28;20105;-74
2023/05/27 03:07:14;;;;;;;3.22;2.25;;;;;;;;;;1026881;28;20037;-74
2023/05/27 03:07:44;;;;;;;8.57;1.85;;;;;;;;;;1026590;28;20030;-74
2023/05/27 03:08:15;;;;;;;1.38;0.90;;;;;;;;;;1029912;28;20676;-75
2023/05/27 03:08:46;;;;;;;0.80;0.60;;;;;;;;;;1030496;28;20447;-75